Time;durP1;ratioP1;P1;durP2;ratioP2;P2;SDS_P1;SDS_P2;PMS_P1;PMS_P2;Temp;Humidity;BMP_temperature;BMP_pressure;BME280_temperature;BME280_humidity;BME280_pressure;Samples;Min_cycle;Max_cycle;Signal;HPM_P1;HPM_P2
2021/12/30 00:00:17;;;;;;;60.88;29.12;;;;;;;3.34;88.65;98626.41;1725092;83;20975;-41
2021/12/30 00:02:43;;;;;;;62.62;30.75;;;;;;;3.31;88.63;98626.08;1725083;83;21468;-40
2021/12/30 00:05:09;;;;;;;61.35;30.60;;;;;;;3.24;88.78;98624.14;1725076;82;21425;-40
2021/12/30 00:07:36;;;;;;;63.47;29.73;;;;;;;3.24;88.90;98625.90;1699716;84;21013;-39
2021/12/30 00:10:05;;;;;;;59.08;29.82;;;;;;;3.26;88.87;98624.09;1725032;83;21728;-40
2021/12/30 00:12:31;;;;;;;58.10;29.95;;;;;;;3.30;88.87;98627.42;1699376;84;21016;-40
2021/12/30 00:14:56;;;;;;;55.15;28.90;;;;;;;3.26;88.83;98627.52;1725022;83;21006;-41
2021/12/30 00:17:22;;;;;;;57.55;28.12;;;;;;;3.25;88.98;98627.58;1724983;83;21015;-41
2021/12/30 00:19:48;;;;;;;55.90;29.52;;;;;;;3.25;89.10;98624.52;1725065;83;21007;-40
2021/12/30 00:22:14;;;;;;;61.00;30.27;;;;;;;3.19;89.38;98623.45;1725106;83;21003;-41
2021/12/30 00:24:39;;;;;;;61.77;29.63;;;;;;;3.23;89.32;98628.09;1725214;83;20975;-41
2021/12/30 00:27:05;;;;;;;60.30;29.65;;;;;;;3.27;89.31;98628.36;1725047;83;20971;-40
2021/12/30 00:29:31;;;;;;;58.28;28.75;;;;;;;3.29;89.20;98629.16;1725058;83;21050;-40
2021/12/30 00:31:57;;;;;;;56.85;28.98;;;;;;;3.30;89.14;98624.36;1725048;83;21055;-42
2021/12/30 00:34:23;;;;;;;61.50;30.65;;;;;;;3.28;89.03;98617.54;1725117;83;21043;-41
2021/12/30 00:36:49;;;;;;;64.90;31.20;;;;;;;3.22;89.30;98619.45;1725157;82;21469;-41
2021/12/30 00:39:14;;;;;;;61.58;30.68;;;;;;;3.16;89.50;98613.16;1725276;83;21552;-40
2021/12/30 00:41:40;;;;;;;56.98;31.15;;;;;;;3.17;89.61;98611.44;1725187;83;21051;-40
2021/12/30 00:44:06;;;;;;;63.48;32.40;;;;;;;3.16;89.86;98617.52;1699365;84;20985;-41
2021/12/30 00:46:32;;;;;;;65.03;32.70;;;;;;;3.19;89.65;98622.61;1724997;83;21125;-42
2021/12/30 00:48:58;;;;;;;58.60;31.62;;;;;;;3.19;89.56;98616.12;1725068;83;21018;-41
2021/12/30 00:51:24;;;;;;;63.78;34.15;;;;;;;3.10;90.04;98613.85;1725044;83;21031;-42
2021/12/30 00:53:49;;;;;;;65.32;33.38;;;;;;;3.13;89.84;98612.42;1725012;83;21038;-41
2021/12/30 00:56:15;;;;;;;63.80;32.83;;;;;;;3.14;89.88;98619.33;1725073;83;21010;-40
2021/12/30 00:58:41;;;;;;;64.95;32.98;;;;;;;3.17;89.60;98616.63;1725064;83;21139;-41
2021/12/30 01:01:07;;;;;;;68.15;34.35;;;;;;;3.19;89.35;98618.25;1725153;83;21034;-42
2021/12/30 01:03:34;;;;;;;64.90;34.65;;;;;;;3.20;89.46;98630.78;1725042;83;21042;-42
2021/12/30 01:06:00;;;;;;;71.45;35.40;;;;;;;3.16;89.64;98629.20;1725218;83;21394;-41
2021/12/30 01:08:26;;;;;;;66.95;33.90;;;;;;;3.16;89.50;98631.34;1725331;83;21006;-42
2021/12/30 01:10:52;;;;;;;62.78;34.50;;;;;;;3.19;89.56;98629.11;1727441;83;21035;-42
2021/12/30 01:13:24;;;;;;;69.55;35.20;;;;;;;3.19;89.52;98631.70;1708943;84;21638;-41
2021/12/30 01:16:00;;;;;;;69.67;34.65;;;;;;;3.19;89.55;98628.65;1727764;83;20999;-41
2021/12/30 01:18:38;;;;;;;68.05;34.80;;;;;;;3.14;89.77;98630.55;1728004;83;21038;-40
2021/12/30 01:20:58;;;;;;;61.05;32.30;;;;;;;3.19;89.76;98638.20;1707606;83;20973;-42
2021/12/30 01:23:25;;;;;;;62.35;33.48;;;;;;;3.17;89.78;98632.22;1728616;83;21010;-42
2021/12/30 01:25:51;;;;;;;58.63;32.15;;;;;;;3.16;89.61;98628.75;1728811;83;21011;-42
2021/12/30 01:28:18;;;;;;;68.90;34.70;;;;;;;3.03;90.27;98625.73;1708906;84;21031;-41
2021/12/30 01:30:44;;;;;;;66.67;34.90;;;;;;;3.07;90.16;98625.18;1728704;83;21425;-42
2021/12/30 01:33:10;;;;;;;65.73;34.03;;;;;;;3.05;90.33;98624.39;1729062;83;21035;-40
2021/12/30 01:35:36;;;;;;;60.38;33.98;;;;;;;3.11;90.05;98631.11;1728613;83;21035;-41
2021/12/30 01:38:02;;;;;;;66.05;34.05;;;;;;;3.13;89.99;98637.10;1674410;84;21038;-40
2021/12/30 01:40:30;;;;;;;65.62;33.90;;;;;;;3.17;90.12;98637.41;1708924;84;20988;-41
2021/12/30 01:42:56;;;;;;;60.55;32.53;;;;;;;3.19;89.97;98634.30;1708839;84;21031;-41
2021/12/30 01:45:22;;;;;;;70.47;34.40;;;;;;;3.22;89.94;98631.14;1728619;83;21057;-41
2021/12/30 01:47:53;;;;;;;61.25;33.65;;;;;;;3.22;89.82;98627.25;1728633;83;21046;-41
2021/12/30 01:50:23;;;;;;;72.25;37.15;;;;;;;3.19;89.79;98630.41;1728465;83;21076;-41
2021/12/30 01:52:49;;;;;;;67.97;34.18;;;;;;;3.15;89.98;98632.27;1728634;83;21009;-40
2021/12/30 01:55:18;;;;;;;69.58;34.40;;;;;;;3.15;89.86;98642.66;1686824;85;21013;-42
2021/12/30 01:57:43;;;;;;;71.12;35.58;;;;;;;3.16;90.08;98657.79;1715722;84;21098;-42
2021/12/30 02:00:14;;;;;;;68.30;33.88;;;;;;;3.20;90.06;98652.44;1728543;83;20995;-41
2021/12/30 02:02:40;;;;;;;67.03;33.48;;;;;;;3.20;90.22;98656.34;1708991;84;21511;-41
2021/12/30 02:05:07;;;;;;;68.17;34.67;;;;;;;3.18;90.26;98660.72;1728560;83;21019;-41
2021/12/30 02:07:33;;;;;;;71.97;33.93;;;;;;;3.21;90.21;98668.41;1728842;82;21464;-41
2021/12/30 02:10:01;;;;;;;65.90;31.00;;;;;;;3.21;90.00;98651.98;1728503;83;21003;-42
2021/12/30 02:12:31;;;;;;;69.90;33.58;;;;;;;3.18;89.99;98662.47;1728513;83;20991;-41
2021/12/30 02:14:57;;;;;;;71.85;35.60;;;;;;;3.18;90.16;98663.77;1728639;83;21002;-42
2021/12/30 02:17:23;;;;;;;72.72;34.08;;;;;;;3.19;90.15;98660.28;1728695;83;21480;-41
2021/12/30 02:19:49;;;;;;;68.78;33.23;;;;;;;3.18;90.34;98663.31;1728602;83;20995;-41
2021/12/30 02:22:15;;;;;;;70.97;33.83;;;;;;;3.18;90.39;98654.68;1728596;83;21007;-41
2021/12/30 02:24:49;;;;;;;71.25;33.02;;;;;;;3.15;90.73;98650.91;1728576;82;21015;-40
2021/12/30 02:27:15;;;;;;;63.73;33.23;;;;;;;3.18;90.77;98646.89;1708843;84;21015;-41
2021/12/30 02:29:40;;;;;;;69.37;34.27;;;;;;;3.18;90.69;98649.48;1698106;84;21576;-40
2021/12/30 02:32:06;;;;;;;68.12;34.10;;;;;;;3.20;90.61;98651.14;1728632;83;21863;-41
2021/12/30 02:34:32;;;;;;;72.05;34.20;;;;;;;3.16;90.76;98651.30;1728758;83;20979;-42
2021/12/30 02:36:58;;;;;;;71.28;35.25;;;;;;;3.14;90.83;98644.01;1728513;83;21046;-42
2021/12/30 02:39:24;;;;;;;68.47;34.67;;;;;;;3.12;90.86;98647.11;1728575;83;21015;-40
2021/12/30 02:41:51;;;;;;;72.85;33.92;;;;;;;3.11;90.85;98655.80;1716222;78;21614;-41
2021/12/30 02:44:18;;;;;;;62.03;33.70;;;;;;;3.16;90.79;98672.08;1706714;84;21032;-39
2021/12/30 02:46:44;;;;;;;70.40;33.90;;;;;;;3.20;90.83;98674.95;1707358;83;21019;-40
2021/12/30 02:49:10;;;;;;;63.38;33.05;;;;;;;3.21;90.85;98677.97;1707574;83;21004;-40
2021/12/30 02:51:37;;;;;;;69.65;34.27;;;;;;;3.21;90.66;98671.47;1707562;83;21048;-40
2021/12/30 02:54:04;;;;;;;72.55;33.88;;;;;;;3.14;90.93;98670.83;1707575;84;21501;-39
2021/12/30 02:56:30;;;;;;;;;;;;;;;3.12;91.13;98670.50;1710166;84;21008;-41
2021/12/30 02:58:57;;;;;;;73.92;33.35;;;;;;;3.11;90.95;98677.45;1707561;84;20431;-40
2021/12/30 03:01:27;;;;;;;70.08;33.90;;;;;;;3.13;90.99;98674.77;1707555;84;21011;-40
2021/12/30 03:03:55;;;;;;;66.75;31.75;;;;;;;3.13;91.34;98677.37;1707597;83;21508;-41
2021/12/30 03:06:23;;;;;;;64.92;33.00;;;;;;;3.16;91.33;98677.27;1707576;83;20996;-41
2021/12/30 03:08:50;;;;;;;69.22;33.55;;;;;;;3.16;91.15;98682.01;1707585;83;20996;-40
2021/12/30 03:11:18;;;;;;;66.80;32.23;;;;;;;3.17;91.33;98683.72;1707685;83;21043;-41
2021/12/30 03:13:44;;;;;;;63.95;31.85;;;;;;;3.21;91.05;98689.20;1707532;84;21052;-41
2021/12/30 03:16:15;;;;;;;67.10;32.28;;;;;;;3.21;90.87;98681.86;1707553;84;21016;-40
2021/12/30 03:18:44;;;;;;;64.27;30.70;;;;;;;3.21;90.91;98687.06;1707083;84;21051;-39
2021/12/30 03:21:13;;;;;;;66.53;32.45;;;;;;;3.19;90.72;98691.47;1707497;83;21498;-40
2021/12/30 03:23:39;;;;;;;71.95;34.10;;;;;;;3.07;91.54;98687.09;1707558;83;21036;-39
2021/12/30 03:26:07;;;;;;;67.75;32.78;;;;;;;3.08;91.70;98693.97;1707632;83;21469;-41
2021/12/30 03:28:35;;;;;;;63.20;32.10;;;;;;;3.15;91.41;98692.02;1707764;83;20984;-41
2021/12/30 03:31:01;;;;;;;66.25;32.88;;;;;;;3.20;91.36;98695.31;1707807;83;21046;-40
2021/12/30 03:33:30;;;;;;;67.80;31.70;;;;;;;3.22;91.23;98700.43;1707948;83;21003;-40
2021/12/30 03:35:59;;;;;;;62.65;30.55;;;;;;;3.17;91.23;98703.67;1707681;83;21544;-40
2021/12/30 03:38:27;;;;;;;65.83;31.70;;;;;;;3.16;91.32;98698.06;1707705;84;21007;-40
2021/12/30 03:40:53;;;;;;;60.45;30.20;;;;;;;3.17;91.13;98707.56;1707774;84;21007;-40
2021/12/30 03:43:19;;;;;;;57.10;29.75;;;;;;;3.18;91.03;98709.24;1695074;83;21036;-41
2021/12/30 03:45:45;;;;;;;60.78;29.45;;;;;;;3.20;91.10;98715.23;1693656;84;21012;-40
2021/12/30 03:48:11;;;;;;;58.98;28.85;;;;;;;3.26;90.94;98721.53;1693613;84;21012;-40
2021/12/30 03:50:43;;;;;;;54.55;28.80;;;;;;;3.24;90.92;98712.48;1693703;85;21510;-40
2021/12/30 03:53:06;;;;;;;61.63;30.48;;;;;;;3.25;90.71;98714.16;1692897;85;21628;-41
2021/12/30 03:55:32;;;;;;;60.03;28.38;;;;;;;3.25;90.64;98718.52;1693837;85;21008;-40
2021/12/30 03:57:58;;;;;;;60.75;31.00;;;;;;;3.26;90.75;98730.63;1693642;84;21000;-41
2021/12/30 04:00:27;;;;;;;62.23;30.10;;;;;;;3.27;90.57;98731.01;1693629;84;21045;-40
2021/12/30 04:02:52;;;;;;;57.40;30.30;;;;;;;3.29;90.64;98736.16;1693606;84;21016;-39
2021/12/30 04:05:19;;;;;;;58.10;28.83;;;;;;;3.30;90.66;98729.61;1693644;85;20997;-41
2021/12/30 04:07:45;;;;;;;59.93;28.70;;;;;;;3.29;90.58;98720.11;1693914;84;21501;-40
2021/12/30 04:10:13;;;;;;;57.73;28.27;;;;;;;3.25;90.57;98725.86;1693618;84;21000;-41
2021/12/30 04:12:40;;;;;;;53.48;28.42;;;;;;;3.20;90.85;98733.42;1693602;85;20989;-41
2021/12/30 04:15:08;;;;;;;57.48;28.67;;;;;;;3.18;91.17;98729.56;1693721;85;21052;-39
2021/12/30 04:17:34;;;;;;;57.60;28.45;;;;;;;3.23;90.97;98728.13;1693558;84;21020;-41
2021/12/30 04:20:00;;;;;;;60.15;28.55;;;;;;;3.23;90.93;98722.93;1693727;85;21008;-40
2021/12/30 04:22:26;;;;;;;64.85;29.98;;;;;;;3.24;90.74;98718.14;1693716;85;21558;-40
2021/12/30 04:24:52;;;;;;;53.75;26.90;;;;;;;3.20;91.04;98723.02;1693608;85;21490;-41
2021/12/30 04:27:18;;;;;;;59.63;29.63;;;;;;;3.22;90.89;98727.28;1693633;84;21057;-41
2021/12/30 04:29:44;;;;;;;51.65;26.93;;;;;;;3.22;90.97;98731.61;1693609;84;21042;-40
2021/12/30 04:32:10;;;;;;;56.30;27.60;;;;;;;3.23;90.89;98729.42;1693564;84;21493;-39
2021/12/30 04:34:35;;;;;;;54.27;27.90;;;;;;;3.22;90.95;98725.11;1693580;84;20985;-40
2021/12/30 04:37:01;;;;;;;59.50;28.90;;;;;;;3.23;90.82;98723.77;1693681;84;21480;-40
2021/12/30 04:39:30;;;;;;;60.00;28.25;;;;;;;3.22;91.00;98731.19;1693583;85;21020;-41
2021/12/30 04:42:01;;;;;;;62.08;29.45;;;;;;;3.23;90.88;98728.97;1693767;84;21041;-40
2021/12/30 04:44:28;;;;;;;58.55;28.98;;;;;;;3.22;90.82;98729.02;1721934;83;21015;-41
2021/12/30 04:46:55;;;;;;;61.65;29.30;;;;;;;3.21;91.04;98728.63;1694724;85;21496;-41
2021/12/30 04:49:22;;;;;;;63.80;30.82;;;;;;;3.21;91.11;98732.07;1722148;83;20992;-41
2021/12/30 04:51:49;;;;;;;74.90;32.25;;;;;;;3.20;91.37;98739.48;1722167;83;21052;-42
2021/12/30 04:54:14;;;;;;;63.35;31.42;;;;;;;3.19;91.60;98742.13;1694588;85;21001;-39
2021/12/30 04:56:40;;;;;;;70.72;33.13;;;;;;;3.21;91.32;98727.33;1721963;83;21536;-41
2021/12/30 04:59:06;;;;;;;67.37;32.00;;;;;;;3.15;91.80;98726.25;1721921;83;21005;-41
2021/12/30 05:01:32;;;;;;;68.02;32.00;;;;;;;3.19;91.50;98724.78;1694357;85;21005;-41
2021/12/30 05:03:57;;;;;;;69.60;32.55;;;;;;;3.19;91.45;98717.45;1721973;83;21000;-39
2021/12/30 05:06:23;;;;;;;70.17;32.17;;;;;;;3.16;91.64;98711.05;1694569;85;21048;-40
2021/12/30 05:08:49;;;;;;;67.72;32.20;;;;;;;3.15;91.69;98711.97;1721946;83;21028;-42
2021/12/30 05:11:15;;;;;;;70.08;33.38;;;;;;;3.17;91.54;98704.97;1694569;84;21005;-41
2021/12/30 05:13:40;;;;;;;64.80;32.23;;;;;;;3.18;91.60;98710.08;1721855;83;21034;-39
2021/12/30 05:16:06;;;;;;;64.75;32.63;;;;;;;3.19;91.49;98713.55;1721975;83;21039;-41
2021/12/30 05:18:33;;;;;;;64.40;33.45;;;;;;;3.19;91.60;98725.24;1694570;85;21044;-42
2021/12/30 05:21:02;;;;;;;70.30;33.67;;;;;;;3.20;91.48;98739.48;1722070;83;21072;-40
2021/12/30 05:23:29;;;;;;;69.17;32.98;;;;;;;3.23;91.32;98751.52;1721968;83;21032;-40
2021/12/30 05:25:57;;;;;;;71.37;33.88;;;;;;;3.27;91.14;98745.30;1694701;85;21534;-40
2021/12/30 05:28:23;;;;;;;71.57;33.13;;;;;;;3.30;90.94;98732.21;1722036;83;21027;-41
2021/12/30 05:30:50;;;;;;;73.27;33.50;;;;;;;3.29;90.98;98733.09;1722186;83;21017;-42
2021/12/30 05:33:16;;;;;;;69.30;34.48;;;;;;;3.32;90.91;98733.00;1694556;85;21037;-41
2021/12/30 05:35:42;;;;;;;73.07;34.55;;;;;;;3.35;90.75;98738.11;1721944;83;21486;-39
2021/12/30 05:38:07;;;;;;;74.70;35.83;;;;;;;3.37;90.67;98755.79;1694612;84;21534;-40
2021/12/30 05:40:35;;;;;;;74.07;33.92;;;;;;;3.41;90.62;98758.67;1722056;83;20993;-40
2021/12/30 05:43:02;;;;;;;67.45;32.23;;;;;;;3.42;90.57;98766.01;1722040;83;21017;-41
2021/12/30 05:45:28;;;;;;;77.85;34.03;;;;;;;3.46;90.58;98772.36;1694819;84;20981;-41
2021/12/30 05:47:55;;;;;;;76.42;35.25;;;;;;;3.46;90.54;98777.56;1721989;83;21506;-39
2021/12/30 05:50:25;;;;;;;75.95;34.15;;;;;;;3.46;90.46;98775.42;1721932;83;21035;-40
2021/12/30 05:52:51;;;;;;;66.97;32.78;;;;;;;3.46;90.33;98777.56;1694564;84;20986;-42
2021/12/30 05:55:17;;;;;;;70.28;33.23;;;;;;;3.45;90.34;98771.95;1721936;83;21616;-40
2021/12/30 05:57:44;;;;;;;75.55;34.88;;;;;;;3.48;90.43;98772.77;1721891;83;20996;-40
2021/12/30 06:00:15;;;;;;;70.52;33.63;;;;;;;3.49;90.48;98780.49;1694803;85;21047;-40
2021/12/30 06:02:41;;;;;;;71.37;33.85;;;;;;;3.51;90.39;98778.72;1721890;83;20984;-41
2021/12/30 06:05:08;;;;;;;66.07;31.87;;;;;;;3.52;90.34;98780.86;1721921;83;21038;-41
2021/12/30 06:07:34;;;;;;;69.67;32.67;;;;;;;3.48;90.34;98780.11;1694649;84;21530;-42
2021/12/30 06:10:00;;;;;;;68.50;31.57;;;;;;;3.49;90.38;98770.55;1721940;83;20995;-42
2021/12/30 06:12:26;;;;;;;70.70;32.90;;;;;;;3.48;90.52;98773.61;1721886;83;20981;-41
2021/12/30 06:14:52;;;;;;;57.50;29.15;;;;;;;3.49;90.41;98780.95;1694506;85;21127;-41
2021/12/30 06:17:18;;;;;;;68.85;32.38;;;;;;;3.45;90.61;98774.55;1721918;83;21032;-40
2021/12/30 06:19:44;;;;;;;59.75;30.10;;;;;;;3.41;90.70;98775.56;1721882;83;21001;-42
2021/12/30 06:22:11;;;;;;;65.65;31.23;;;;;;;3.43;90.67;98777.66;1694526;85;21008;-42
2021/12/30 06:24:39;;;;;;;69.87;32.10;;;;;;;3.50;90.58;98774.86;1721859;83;21536;-41
2021/12/30 06:27:06;;;;;;;61.63;32.00;;;;;;;3.43;90.53;98777.66;1694844;85;21061;-41
2021/12/30 06:29:33;;;;;;;65.78;29.63;;;;;;;3.43;90.38;98784.16;1722031;83;21012;-41
2021/12/30 06:31:59;;;;;;;66.75;29.63;;;;;;;3.43;90.63;98780.72;1694634;85;21060;-40
2021/12/30 06:34:24;;;;;;;61.40;29.80;;;;;;;3.41;90.85;98785.12;1721900;83;21548;-41
2021/12/30 06:36:50;;;;;;;65.90;30.02;;;;;;;3.41;91.01;98787.27;1721903;83;21752;-41
2021/12/30 06:39:16;;;;;;;65.87;29.82;;;;;;;3.44;90.96;98782.43;1694499;85;21497;-42
2021/12/30 06:41:42;;;;;;;59.83;28.87;;;;;;;3.46;90.94;98784.52;1721913;83;20996;-42
2021/12/30 06:44:08;;;;;;;60.58;30.00;;;;;;;3.51;90.91;98786.52;1703423;83;21013;-40
2021/12/30 06:46:34;;;;;;;60.30;28.52;;;;;;;3.56;90.71;98788.48;1700815;84;21040;-42
2021/12/30 06:49:00;;;;;;;61.95;29.42;;;;;;;3.58;90.66;98787.13;1700798;83;21009;-40
2021/12/30 06:51:27;;;;;;;64.53;29.00;;;;;;;3.61;90.50;98792.23;1700829;84;20989;-40
2021/12/30 06:53:55;;;;;;;56.45;29.25;;;;;;;3.56;90.59;98787.64;1700873;83;21529;-42
2021/12/30 06:56:23;;;;;;;54.55;27.75;;;;;;;3.57;90.30;98793.25;1700856;84;21001;-41
2021/12/30 06:58:49;;;;;;;;;;;;;;;3.50;90.67;98792.61;1703355;84;20977;-41
2021/12/30 07:01:15;;;;;;;60.43;30.40;;;;;;;3.50;90.69;98793.91;1671230;86;20149;-42
2021/12/30 07:03:41;;;;;;;58.42;30.25;;;;;;;3.52;90.69;98792.55;1671247;84;21093;-42
2021/12/30 07:06:09;;;;;;;60.60;31.20;;;;;;;3.41;91.13;98798.12;1672688;86;21007;-41
2021/12/30 07:08:35;;;;;;;69.30;31.75;;;;;;;3.38;91.19;98806.85;1700810;84;20995;-41
2021/12/30 07:11:01;;;;;;;65.87;31.97;;;;;;;3.38;91.44;98822.45;1700862;84;21471;-41
2021/12/30 07:13:27;;;;;;;65.17;31.48;;;;;;;3.38;91.58;98823.75;1700807;84;20981;-43
2021/12/30 07:15:52;;;;;;;65.67;32.83;;;;;;;3.42;91.46;98820.17;1700770;83;21001;-42
2021/12/30 07:18:18;;;;;;;60.08;32.17;;;;;;;3.44;91.35;98830.52;1700799;84;21010;-41
2021/12/30 07:20:44;;;;;;;63.28;31.55;;;;;;;3.48;91.34;98831.27;1700747;84;20998;-41
2021/12/30 07:23:10;;;;;;;61.88;30.48;;;;;;;3.48;91.26;98832.56;1700794;84;21033;-42
2021/12/30 07:25:36;;;;;;;70.20;32.15;;;;;;;3.45;91.34;98833.03;1700797;83;20974;-41
2021/12/30 07:28:03;;;;;;;69.97;32.40;;;;;;;3.45;91.35;98830.44;1700749;84;21399;-42
2021/12/30 07:30:30;;;;;;;62.23;31.48;;;;;;;3.49;91.23;98830.34;1700765;84;21530;-42
2021/12/30 07:32:56;;;;;;;68.72;30.60;;;;;;;3.54;91.01;98822.78;1701037;83;21122;-42
2021/12/30 07:35:22;;;;;;;64.45;30.02;;;;;;;3.52;90.94;98818.09;1700799;83;21006;-43
2021/12/30 07:37:50;;;;;;;61.95;30.70;;;;;;;3.53;90.98;98817.63;1700875;83;21494;-40
2021/12/30 07:40:17;;;;;;;66.28;32.90;;;;;;;3.48;91.12;98813.06;1700842;83;20993;-41
2021/12/30 07:42:43;;;;;;;55.30;29.87;;;;;;;3.49;91.14;98814.28;1704521;83;21721;-40
2021/12/30 07:45:11;;;;;;;61.68;31.90;;;;;;;3.49;91.02;98806.48;1694560;85;21033;-42
2021/12/30 07:47:38;;;;;;;;;;;;;;;3.49;90.95;98819.48;1724450;83;20977;-41
2021/12/30 07:50:05;;;;;;;63.20;34.05;;;;;;;3.47;90.84;98821.30;1694540;85;20128;-41
2021/12/30 07:52:30;;;;;;;59.67;31.55;;;;;;;3.50;90.92;98809.96;1722159;83;21457;-41
2021/12/30 07:54:56;;;;;;;60.60;31.95;;;;;;;3.54;90.81;98816.75;1721802;83;21036;-41
2021/12/30 07:57:22;;;;;;;60.35;30.27;;;;;;;3.55;90.62;98819.30;1694587;85;21008;-42
2021/12/30 07:59:51;;;;;;;59.95;30.25;;;;;;;3.55;90.65;98821.90;1721842;83;21008;-42
2021/12/30 08:02:17;;;;;;;59.63;28.77;;;;;;;3.59;90.65;98827.84;1721056;83;21048;-42
2021/12/30 08:04:43;;;;;;;59.10;28.30;;;;;;;3.65;90.58;98827.16;1694453;84;21016;-41
2021/12/30 08:07:09;;;;;;;61.13;27.93;;;;;;;3.66;90.56;98829.33;1721946;83;21455;-40
2021/12/30 08:09:35;;;;;;;60.23;28.65;;;;;;;3.70;90.48;98824.41;1694499;85;21008;-41
2021/12/30 08:12:02;;;;;;;57.65;28.02;;;;;;;3.79;90.34;98831.05;1721863;83;21636;-40
2021/12/30 08:14:28;;;;;;;57.27;28.75;;;;;;;3.73;90.20;98839.92;1721924;83;20969;-42
2021/12/30 08:16:54;;;;;;;52.53;28.60;;;;;;;3.80;90.12;98832.73;1694563;84;21009;-40
2021/12/30 08:19:20;;;;;;;48.87;26.95;;;;;;;3.85;90.11;98839.47;1722177;83;20997;-41
2021/12/30 08:21:46;;;;;;;56.25;27.87;;;;;;;3.88;90.06;98835.09;1722069;83;20998;-41
2021/12/30 08:24:12;;;;;;;55.40;28.73;;;;;;;3.88;89.96;98836.39;1694657;85;21076;-42
2021/12/30 08:26:39;;;;;;;54.73;28.17;;;;;;;3.93;89.78;98846.16;1722350;83;21012;-41
2021/12/30 08:29:06;;;;;;;53.95;27.17;;;;;;;3.95;89.56;98841.77;1722138;83;21589;-41
2021/12/30 08:31:36;;;;;;;53.52;26.45;;;;;;;3.96;89.62;98839.55;1694814;85;21000;-42
2021/12/30 08:34:04;;;;;;;54.58;26.60;;;;;;;3.96;89.61;98841.69;1721948;83;20981;-41
2021/12/30 08:36:30;;;;;;;;;;;;;;;4.01;89.57;98850.65;1724689;83;21016;-42
2021/12/30 08:38:55;;;;;;;60.70;26.80;;;;;;;3.97;89.37;98858.17;1691687;85;20408;-42
2021/12/30 08:41:23;;;;;;;50.60;25.72;;;;;;;4.00;89.45;98861.95;1721964;83;21435;-41
2021/12/30 08:43:49;;;;;;;51.05;27.00;;;;;;;3.96;89.66;98856.46;1694638;85;21017;-41
2021/12/30 08:46:14;;;;;;;50.55;25.08;;;;;;;4.01;89.55;98861.89;1722045;83;20996;-42
2021/12/30 08:48:41;;;;;;;42.40;23.40;;;;;;;4.10;89.36;98862.48;1694570;84;21573;-41
2021/12/30 08:51:07;;;;;;;51.60;26.10;;;;;;;4.17;89.26;98853.09;1721970;83;21004;-41
2021/12/30 08:53:40;;;;;;;49.00;25.50;;;;;;;4.18;89.12;98859.14;1722010;83;21083;-40
2021/12/30 08:56:04;;;;;;;49.45;25.65;;;;;;;4.23;89.03;98863.27;1694014;85;21493;-41
2021/12/30 08:58:30;;;;;;;51.02;25.77;;;;;;;4.30;89.09;98853.95;1722204;83;21497;-41
2021/12/30 09:00:56;;;;;;;48.52;26.40;;;;;;;4.34;88.82;98847.72;1721941;83;21032;-41
2021/12/30 09:03:21;;;;;;;58.35;28.35;;;;;;;4.34;88.55;98848.56;1722030;83;21031;-42
2021/12/30 09:05:47;;;;;;;64.12;27.22;;;;;;;4.38;88.45;98850.17;1694675;85;21524;-41
2021/12/30 09:08:14;;;;;;;59.83;29.92;;;;;;;4.40;88.38;98852.69;1721926;83;21134;-42
2021/12/30 09:10:45;;;;;;;57.40;31.23;;;;;;;4.40;88.29;98847.48;1722059;83;21012;-41
2021/12/30 09:13:11;;;;;;;60.73;29.82;;;;;;;4.44;88.27;98839.98;1694359;85;21004;-41
2021/12/30 09:15:37;;;;;;;49.83;26.42;;;;;;;4.48;88.27;98838.95;1722123;83;21012;-42
2021/12/30 09:18:05;;;;;;;65.90;31.57;;;;;;;4.51;88.11;98834.94;1721931;83;21016;-40
2021/12/30 09:20:31;;;;;;;64.47;31.77;;;;;;;4.54;88.01;98837.41;1694539;85;21518;-41
2021/12/30 09:22:57;;;;;;;56.92;29.37;;;;;;;4.58;87.78;98843.34;1721990;83;21004;-40
2021/12/30 09:25:24;;;;;;;58.15;28.55;;;;;;;4.57;87.64;98859.43;1694578;84;20980;-41
2021/12/30 09:27:53;;;;;;;52.67;28.38;;;;;;;4.56;87.56;98853.81;1722014;83;21008;-42
2021/12/30 09:30:19;;;;;;;54.98;25.95;;;;;;;4.60;87.69;98851.52;1722039;83;21043;-41
2021/12/30 09:32:48;;;;;;;47.48;25.68;;;;;;;4.61;87.70;98847.98;1696698;84;20997;-41
2021/12/30 09:35:15;;;;;;;53.38;24.50;;;;;;;4.66;87.67;98842.61;1716926;82;21007;-40
2021/12/30 09:37:42;;;;;;;48.83;24.07;;;;;;;4.72;87.52;98845.44;1724661;82;20967;-42
2021/12/30 09:40:13;;;;;;;;;;;;;;;4.69;87.17;98838.56;1725301;82;20954;-43
2021/12/30 09:42:39;;;;;;;48.00;21.75;;;;;;;4.70;87.23;98838.14;1698818;84;20149;-43
2021/12/30 09:45:05;;;;;;;;;;;;;;;4.72;87.17;98836.31;1722554;82;20999;-41
2021/12/30 09:47:32;;;;;;;43.15;21.70;;;;;;;4.53;86.84;98840.06;1703066;84;20117;-42
2021/12/30 09:49:58;;;;;;;41.48;21.57;;;;;;;4.73;87.13;98845.81;1721281;82;20972;-44
2021/12/30 09:52:25;;;;;;;38.78;20.23;;;;;;;4.71;86.93;98838.08;1722006;82;20962;-42
2021/12/30 09:54:51;;;;;;;40.08;20.25;;;;;;;4.68;87.03;98836.89;1717262;82;20952;-41
2021/12/30 09:57:16;;;;;;;38.50;19.32;;;;;;;4.70;87.02;98845.95;1717968;82;21685;-41
2021/12/30 09:59:42;;;;;;;39.40;20.70;;;;;;;4.70;87.12;98840.74;1719810;82;20967;-42
2021/12/30 10:02:09;;;;;;;39.63;20.37;;;;;;;4.73;87.11;98846.68;1715554;82;20948;-44
2021/12/30 10:04:35;;;;;;;43.55;20.50;;;;;;;4.68;86.98;98846.47;1723609;82;20998;-42
2021/12/30 10:07:03;;;;;;;43.40;20.37;;;;;;;4.68;87.02;98846.47;1712533;83;20946;-42
2021/12/30 10:09:49;;;;;;;;;;;;;;;4.73;87.10;98841.91;1719363;82;21041;-42
2021/12/30 10:12:07;;;;;;;54.53;24.10;;;;;;;4.72;87.04;98844.97;1694644;84;20436;-42
2021/12/30 10:14:37;;;;;;;38.60;20.25;;;;;;;4.72;86.93;98838.45;1718052;82;21072;-42
2021/12/30 10:24:22;;;;;;;47.08;22.67;;;;;;;4.70;86.77;98819.91;1721716;82;20974;-43
2021/12/30 10:26:53;;;;;;;39.75;21.27;;;;;;;4.68;86.73;98819.13;1723933;82;21030;-41
2021/12/30 10:29:19;;;;;;;41.18;21.90;;;;;;;4.70;86.81;98816.83;1713519;82;21076;-44
2021/12/30 10:31:44;;;;;;;35.28;21.02;;;;;;;4.74;86.96;98821.02;1720955;82;20985;-41
2021/12/30 10:34:12;;;;;;;36.68;20.90;;;;;;;4.71;86.95;98826.80;1721826;82;21034;-43
2021/12/30 10:36:42;;;;;;;;;;;;;;;4.72;86.99;98818.92;1727054;82;21655;-42
2021/12/30 10:39:27;;;;;;;36.35;20.05;;;;;;;4.77;86.98;98816.99;1712455;83;20197;-43
2021/12/30 10:42:20;;;;;;;41.13;20.68;;;;;;;4.83;86.97;98821.11;1726794;82;21476;-42
2021/12/30 10:45:06;;;;;;;38.88;19.70;;;;;;;4.86;86.93;98818.39;1714993;82;21000;-43
2021/12/30 10:47:55;;;;;;;44.40;21.15;;;;;;;4.87;86.80;98808.34;1684340;85;20970;-42
2021/12/30 10:50:23;;;;;;;41.45;21.48;;;;;;;4.87;86.67;98800.53;1714134;84;20971;-41
2021/12/30 10:52:55;;;;;;;36.83;20.95;;;;;;;4.88;86.59;98804.84;1714417;84;21513;-42
2021/12/30 10:55:24;;;;;;;42.67;20.20;;;;;;;4.80;86.69;98798.64;1714384;83;20987;-42
2021/12/30 10:57:51;;;;;;;37.40;20.10;;;;;;;4.86;86.66;98800.16;1714032;82;21627;-42
2021/12/30 11:00:31;;;;;;;38.80;20.62;;;;;;;4.84;86.60;98791.98;1714397;83;20963;-41
2021/12/30 11:03:24;;;;;;;39.65;21.65;;;;;;;4.88;86.63;98787.08;1689320;83;20974;-43
2021/12/30 11:06:12;;;;;;;41.77;20.45;;;;;;;4.85;86.64;98789.33;1688667;84;21081;-42
2021/12/30 11:08:38;;;;;;;40.48;21.50;;;;;;;4.87;86.85;98793.17;1714459;82;20995;-41
2021/12/30 11:11:27;;;;;;;44.00;21.52;;;;;;;4.88;86.83;98784.00;1714213;84;21027;-41
2021/12/30 11:13:59;;;;;;;43.30;21.97;;;;;;;4.89;86.77;98792.19;1682789;85;20999;-42
2021/12/30 11:16:25;;;;;;;35.38;19.65;;;;;;;4.88;86.73;98787.91;1713966;83;21042;-42
2021/12/30 11:18:51;;;;;;;48.35;20.80;;;;;;;4.87;86.93;98777.08;1714359;83;21658;-43
2021/12/30 11:21:39;;;;;;;39.03;21.23;;;;;;;4.86;86.84;98772.80;1713996;83;20963;-42
2021/12/30 11:24:10;;;;;;;38.23;20.02;;;;;;;4.86;86.91;98768.89;1714225;84;20967;-43
2021/12/30 11:26:37;;;;;;;36.30;20.23;;;;;;;4.84;87.01;98759.42;1714658;83;21019;-43
2021/12/30 11:29:05;;;;;;;42.65;22.52;;;;;;;4.75;87.50;98761.50;1714079;83;20980;-42
2021/12/30 11:31:32;;;;;;;43.35;22.07;;;;;;;4.81;87.51;98766.92;1714466;83;21650;-43
2021/12/30 11:33:59;;;;;;;37.53;21.33;;;;;;;4.80;87.41;98771.30;1684201;84;21024;-42